Time;durP1;ratioP1;P1;durP2;ratioP2;P2;SDS_P1;SDS_P2;PMS_P1;PMS_P2;Temp;Humidity;BMP_temperature;BMP_pressure;BME280_temperature;BME280_humidity;BME280_pressure;Samples;Min_cycle;Max_cycle;Signal;HPM_P1;HPM_P2
2022/12/23 00:00:33;;;;;;;;;;;1.20;99.90;;;;;;5038151;28;19920;-80
2022/12/23 00:02:58;;;;;;;;;;;1.20;99.90;;;;;;5038759;28;19956;-79
2022/12/23 00:05:24;;;;;;;;;;;1.20;99.90;;;;;;5038135;28;20313;-80
2022/12/23 00:07:49;;;;;;;;;;;1.20;99.90;;;;;;5036806;28;20332;-80
2022/12/23 00:10:15;;;;;;;;;;;1.20;99.90;;;;;;5037487;28;19921;-80
2022/12/23 00:15:25;;;;;;;;;;;1.30;99.90;;;;;;5037745;28;19970;-80
2022/12/23 00:17:50;;;;;;;;;;;1.30;99.90;;;;;;5036840;28;19913;-80
2022/12/23 00:20:16;;;;;;;;;;;1.20;99.90;;;;;;5036362;28;19910;-80
2022/12/23 00:25:43;;;;;;;;;;;1.30;99.90;;;;;;5036640;28;19916;-80
2022/12/23 00:28:15;;;;;;;;;;;1.30;99.90;;;;;;5028553;28;19926;-80
2022/12/23 00:30:54;;;;;;;;;;;1.30;99.90;;;;;;5035747;28;19913;-80
2022/12/23 00:33:21;;;;;;;;;;;1.40;99.90;;;;;;5037526;28;20000;-80
2022/12/23 00:35:47;;;;;;;;;;;1.40;99.90;;;;;;5037435;28;19920;-79
2022/12/23 00:38:13;;;;;;;;;;;1.40;99.90;;;;;;5037559;28;20011;-80
2022/12/23 00:43:23;;;;;;;;;;;1.30;99.90;;;;;;5036012;28;19979;-80
2022/12/23 00:45:49;;;;;;;;;;;1.30;99.90;;;;;;5037260;28;20365;-80
2022/12/23 00:50:59;;;;;;;;;;;1.30;99.90;;;;;;5037295;28;19971;-79
2022/12/23 00:53:24;;;;;;;;;;;1.40;99.90;;;;;;5037008;28;19913;-79
2022/12/23 00:55:50;;;;;;;;;;;1.40;99.90;;;;;;5036761;28;19913;-80
2022/12/23 00:58:16;;;;;;;;;;;1.40;99.90;;;;;;5037311;28;19910;-80
2022/12/23 01:06:27;;;;;;;;;;;1.40;99.90;;;;;;5054730;28;20426;-80
2022/12/23 01:08:52;;;;;;;;;;;1.40;99.90;;;;;;5023791;28;20020;-79
2022/12/23 01:11:18;;;;;;;;;;;1.40;99.90;;;;;;4999231;28;19917;-80
2022/12/23 01:13:43;;;;;;;;;;;1.40;99.90;;;;;;5016774;28;19914;-80
2022/12/23 01:16:10;;;;;;;;;;;1.30;99.90;;;;;;5016912;28;19913;-79
2022/12/23 01:18:36;;;;;;;;;;;1.30;99.90;;;;;;5016586;28;19910;-80
2022/12/23 01:21:03;;;;;;;;;;;1.40;99.90;;;;;;5016550;28;19915;-80
2022/12/23 01:23:28;;;;;;;;;;;1.40;99.90;;;;;;5023579;28;19920;-80
2022/12/23 01:25:55;;;;;;;;;;;1.30;99.90;;;;;;5036332;28;20004;-80
2022/12/23 01:28:20;;;;;;;;;;;1.40;99.90;;;;;;5034694;28;19924;-80
2022/12/23 01:30:46;;;;;;;;;;;1.30;99.90;;;;;;5033156;28;19913;-79
2022/12/23 01:33:11;;;;;;;;;;;1.30;99.90;;;;;;5034535;28;19917;-79
2022/12/23 01:35:37;;;;;;;;;;;1.30;99.90;;;;;;5037068;28;19967;-79
2022/12/23 01:38:02;;;;;;;;;;;1.30;99.90;;;;;;5037914;28;19971;-79
2022/12/23 01:40:33;;;;;;;;;;;1.30;99.90;;;;;;5036440;28;19913;-79
2022/12/23 01:42:58;;;;;;;;;;;1.40;99.90;;;;;;5038155;28;20385;-79
2022/12/23 01:45:27;;;;;;;;;;;1.30;99.90;;;;;;5037452;28;19956;-79
2022/12/23 01:47:57;;;;;;;;;;;1.40;99.90;;;;;;5036952;28;20357;-80
2022/12/23 01:50:24;;;;;;;;;;;1.40;99.90;;;;;;5036984;28;19916;-80
2022/12/23 01:53:02;;;;;;;;;;;1.40;99.90;;;;;;5037130;28;19909;-81
2022/12/23 01:55:29;;;;;;;;;;;1.40;99.90;;;;;;5035179;28;19909;-80
2022/12/23 01:57:57;;;;;;;;;;;1.40;99.90;;;;;;5031029;28;20010;-80
2022/12/23 02:05:52;;;;;;;;;;;1.40;99.90;;;;;;5035804;28;19988;-80
2022/12/23 02:11:07;;;;;;;;;;;1.50;99.90;;;;;;5035311;28;19995;-81
2022/12/23 02:13:33;;;;;;;;;;;1.50;99.90;;;;;;5032999;28;19916;-81
2022/12/23 02:16:17;;;;;;;;;;;1.50;99.90;;;;;;5034781;28;19913;-81
2022/12/23 02:19:00;;;;;;;;;;;1.50;99.90;;;;;;5036278;28;20305;-81
2022/12/23 02:21:26;;;;;;;;;;;1.50;99.90;;;;;;5033348;28;20345;-80
2022/12/23 02:24:00;;;;;;;;;;;1.50;99.90;;;;;;5034702;28;19909;-80
2022/12/23 02:27:01;;;;;;;;;;;1.50;99.90;;;;;;5034152;28;19974;-79
2022/12/23 02:29:30;;;;;;;;;;;1.50;99.90;;;;;;5019498;28;19920;-80
2022/12/23 02:31:55;;;;;;;;;;;1.50;99.90;;;;;;5034042;28;19916;-80
2022/12/23 02:34:45;;;;;;;;;;;1.50;99.90;;;;;;5035849;28;19995;-80
2022/12/23 02:37:27;;;;;;;;;;;1.50;99.90;;;;;;5034130;28;19921;-81
2022/12/23 02:39:59;;;;;;;;;;;1.50;99.90;;;;;;5035603;28;19952;-80
2022/12/23 02:42:34;;;;;;;;;;;1.50;99.90;;;;;;5035901;28;19909;-81
2022/12/23 02:45:12;;;;;;;;;;;1.50;99.90;;;;;;5034652;28;19910;-80
2022/12/23 02:47:39;;;;;;;;;;;1.50;99.90;;;;;;5035666;28;19917;-80
2022/12/23 02:50:09;;;;;;;;;;;1.50;99.90;;;;;;5035738;28;20405;-80
2022/12/23 02:52:35;;;;;;;;;;;1.60;99.90;;;;;;5042977;28;19910;-78
2022/12/23 02:55:24;;;;;;;;;;;1.50;99.90;;;;;;5046061;28;19936;-78
2022/12/23 02:57:53;;;;;;;;;;;1.60;99.90;;;;;;5044686;28;19910;-78
2022/12/23 03:00:20;;;;;;;;;;;1.60;99.90;;;;;;5048236;28;19944;-78
2022/12/23 03:02:45;;;;;;;;;;;1.60;99.90;;;;;;5046538;28;19909;-78
2022/12/23 03:05:29;;;;;;;;;;;1.60;99.90;;;;;;5048371;28;19932;-79
2022/12/23 03:07:58;;;;;;;;;;;1.60;99.90;;;;;;5047964;28;19948;-78
2022/12/23 03:10:32;;;;;;;;;;;1.60;99.90;;;;;;5047644;28;20377;-79
2022/12/23 03:13:13;;;;;;;;;;;1.60;99.90;;;;;;5047446;28;19914;-79
2022/12/23 03:15:50;;;;;;;;;;;1.60;99.90;;;;;;5047110;28;19913;-78
2022/12/23 03:18:21;;;;;;;;;;;1.60;99.90;;;;;;5046972;28;19936;-78
2022/12/23 03:20:46;;;;;;;;;;;1.70;99.90;;;;;;5046938;28;19916;-78
2022/12/23 03:23:35;;;;;;;;;;;1.60;99.90;;;;;;5046106;28;19909;-79
2022/12/23 03:26:03;;;;;;;;;;;1.60;99.90;;;;;;5040881;28;19979;-79
2022/12/23 03:28:35;;;;;;;;;;;1.60;99.90;;;;;;5046141;28;19921;-79
2022/12/23 03:31:02;;;;;;;;;;;1.60;99.90;;;;;;5047727;28;20280;-78
2022/12/23 03:33:33;;;;;;;;;;;1.60;99.90;;;;;;5046266;28;19909;-78
2022/12/23 03:36:01;;;;;;;;;;;1.60;99.90;;;;;;5045644;28;19913;-78
2022/12/23 03:38:27;;;;;;;;;;;1.60;99.90;;;;;;5045996;28;20369;-78
2022/12/23 03:40:54;;;;;;;;;;;1.60;99.90;;;;;;5043815;28;20004;-78
2022/12/23 03:43:23;;;;;;;;;;;1.70;99.90;;;;;;5044883;28;20011;-78
2022/12/23 03:45:53;;;;;;;;;;;1.60;99.90;;;;;;5045589;28;19913;-78
2022/12/23 03:48:25;;;;;;;;;;;1.60;99.90;;;;;;5045041;28;19917;-79
2022/12/23 03:50:54;;;;;;;;;;;1.60;99.90;;;;;;5045986;28;19959;-78
2022/12/23 03:53:27;;;;;;;;;;;1.70;99.90;;;;;;5045396;28;19916;-78
2022/12/23 03:55:58;;;;;;;;;;;1.70;99.90;;;;;;5046363;28;20380;-78
2022/12/23 03:58:30;;;;;;;;;;;1.60;99.90;;;;;;5044384;28;19916;-79
2022/12/23 04:01:04;;;;;;;;;;;1.60;99.90;;;;;;5046068;28;19953;-79
2022/12/23 04:03:34;;;;;;;;;;;1.60;99.90;;;;;;5047050;28;19909;-78
2022/12/23 04:06:01;;;;;;;;;;;1.70;99.90;;;;;;5045883;28;19952;-78
2022/12/23 04:08:32;;;;;;;;;;;1.70;99.90;;;;;;5045605;28;19979;-78
2022/12/23 04:10:58;;;;;;;;;;;1.70;99.90;;;;;;5045072;28;19909;-78
2022/12/23 04:13:25;;;;;;;;;;;1.70;99.90;;;;;;5045780;28;19909;-78
2022/12/23 04:15:50;;;;;;;;;;;1.70;99.90;;;;;;5044472;28;19909;-78
2022/12/23 04:18:16;;;;;;;;;;;1.70;99.90;;;;;;5044348;28;19937;-78
2022/12/23 04:20:41;;;;;;;;;;;1.70;99.90;;;;;;5043493;28;19909;-78
2022/12/23 04:23:07;;;;;;;;;;;1.70;99.90;;;;;;5044508;28;19991;-78
2022/12/23 04:25:33;;;;;;;;;;;1.60;99.90;;;;;;5045300;28;19914;-78
2022/12/23 04:27:58;;;;;;;;;;;1.60;99.90;;;;;;5047204;28;19988;-78
2022/12/23 04:30:24;;;;;;;;;;;1.60;99.90;;;;;;5047026;28;19913;-78
2022/12/23 04:32:49;;;;;;;;;;;1.60;99.90;;;;;;5046582;28;19917;-78
2022/12/23 04:35:15;;;;;;;;;;;1.50;99.90;;;;;;5044877;28;19981;-78
2022/12/23 04:37:41;;;;;;;;;;;1.50;99.90;;;;;;5046989;28;19924;-78
2022/12/23 04:40:06;;;;;;;;;;;1.60;99.90;;;;;;5046086;28;19910;-79
2022/12/23 04:42:32;;;;;;;;;;;1.60;99.90;;;;;;5046596;28;19916;-79
2022/12/23 04:44:58;;;;;;;;;;;1.60;99.90;;;;;;5046843;28;19956;-79
2022/12/23 04:47:23;;;;;;;;;;;1.70;99.90;;;;;;5046599;28;19909;-79
2022/12/23 04:49:49;;;;;;;;;;;1.70;99.90;;;;;;5046234;28;19913;-78
2022/12/23 04:52:14;;;;;;;;;;;1.70;99.90;;;;;;5047622;28;19936;-78
2022/12/23 04:54:40;;;;;;;;;;;1.70;99.90;;;;;;5046501;28;19921;-79
2022/12/23 04:57:05;;;;;;;;;;;1.70;99.90;;;;;;5045982;28;19988;-78
2022/12/23 04:59:31;;;;;;;;;;;1.70;99.90;;;;;;5046095;28;19909;-79
2022/12/23 05:01:57;;;;;;;;;;;1.70;99.90;;;;;;5041708;28;19972;-79
2022/12/23 05:04:22;;;;;;;;;;;1.70;99.90;;;;;;5046344;28;19916;-78
2022/12/23 05:06:48;;;;;;;;;;;1.70;99.90;;;;;;5046142;28;19917;-79
2022/12/23 05:09:14;;;;;;;;;;;1.70;99.90;;;;;;5045339;28;19971;-79
2022/12/23 05:11:39;;;;;;;;;;;1.70;99.90;;;;;;5048142;28;19958;-79
2022/12/23 05:14:05;;;;;;;;;;;1.70;99.90;;;;;;5049878;28;19940;-78
2022/12/23 05:16:30;;;;;;;;;;;1.70;99.90;;;;;;5049260;28;19913;-78
2022/12/23 05:18:56;;;;;;;;;;;1.70;99.90;;;;;;5049501;28;19909;-78
2022/12/23 05:21:22;;;;;;;;;;;1.70;99.90;;;;;;5049997;28;19976;-78
2022/12/23 05:23:47;;;;;;;;;;;1.70;99.90;;;;;;5048536;28;19909;-78
2022/12/23 05:26:13;;;;;;;;;;;1.70;99.90;;;;;;5048378;28;19913;-78
2022/12/23 05:28:38;;;;;;;;;;;1.70;99.90;;;;;;5049135;28;19975;-78
2022/12/23 05:31:05;;;;;;;;;;;1.70;99.90;;;;;;5048866;28;19913;-78
2022/12/23 05:33:31;;;;;;;;;;;1.70;99.90;;;;;;5048998;28;20352;-78
2022/12/23 05:35:57;;;;;;;;;;;1.70;99.90;;;;;;5048742;28;19909;-78
2022/12/23 05:38:22;;;;;;;;;;;1.80;99.90;;;;;;5048043;28;19921;-79
2022/12/23 05:40:48;;;;;;;;;;;1.80;99.90;;;;;;5045806;28;19918;-78
2022/12/23 05:43:14;;;;;;;;;;;1.90;99.90;;;;;;5047298;28;19909;-79
2022/12/23 05:45:39;;;;;;;;;;;1.90;99.90;;;;;;5047446;28;19913;-79
2022/12/23 05:48:05;;;;;;;;;;;2.00;99.90;;;;;;5047099;28;20071;-79
2022/12/23 05:50:31;;;;;;;;;;;2.00;99.90;;;;;;5048420;28;19910;-79
2022/12/23 05:52:57;;;;;;;;;;;2.00;99.90;;;;;;5047846;28;19916;-78
2022/12/23 05:55:23;;;;;;;;;;;2.10;99.90;;;;;;5045654;28;19913;-78
2022/12/23 05:57:49;;;;;;;;;;;2.10;99.90;;;;;;5046692;28;20415;-78
2022/12/23 06:00:15;;;;;;;;;;;2.10;99.90;;;;;;5045630;28;20015;-79
2022/12/23 06:02:40;;;;;;;;;;;2.20;99.90;;;;;;5050516;28;20325;-79
2022/12/23 06:05:06;;;;;;;;;;;2.20;99.90;;;;;;5050554;28;19913;-79
2022/12/23 06:07:31;;;;;;;;;;;2.20;99.90;;;;;;5049811;28;19928;-79
2022/12/23 06:09:57;;;;;;;;;;;2.10;99.90;;;;;;5049724;28;19932;-79
2022/12/23 06:12:23;;;;;;;;;;;2.10;99.90;;;;;;5048729;28;19913;-79
2022/12/23 06:14:48;;;;;;;;;;;2.10;99.90;;;;;;5049060;28;19917;-79
2022/12/23 06:17:14;;;;;;;;;;;2.10;99.90;;;;;;5048951;28;20679;-79
2022/12/23 06:19:39;;;;;;;;;;;2.20;99.90;;;;;;5048708;28;20424;-79
2022/12/23 06:22:05;;;;;;;;;;;2.20;99.90;;;;;;5047596;28;19913;-78
2022/12/23 06:24:30;;;;;;;;;;;2.20;99.90;;;;;;5045640;28;19909;-78
2022/12/23 06:26:56;;;;;;;;;;;2.20;99.90;;;;;;5046553;28;19913;-78
2022/12/23 06:29:21;;;;;;;;;;;2.20;99.90;;;;;;5046599;28;19917;-78
2022/12/23 06:31:47;;;;;;;;;;;2.10;99.90;;;;;;5045511;28;20005;-79
2022/12/23 06:34:12;;;;;;;;;;;2.10;99.90;;;;;;5047019;28;19913;-79
2022/12/23 06:36:38;;;;;;;;;;;2.10;99.90;;;;;;5043619;28;19931;-80
2022/12/23 06:39:03;;;;;;;;;;;2.10;99.90;;;;;;5047440;28;19917;-79
2022/12/23 06:41:29;;;;;;;;;;;2.10;99.90;;;;;;5047338;28;19913;-78
2022/12/23 06:43:54;;;;;;;;;;;2.10;99.90;;;;;;5046074;28;20410;-79
2022/12/23 06:46:20;;;;;;;;;;;2.10;99.90;;;;;;5047325;28;19920;-78
2022/12/23 06:48:45;;;;;;;;;;;2.10;99.90;;;;;;5047517;28;19924;-78
2022/12/23 06:51:11;;;;;;;;;;;2.10;99.90;;;;;;5047422;28;19913;-79
2022/12/23 06:53:37;;;;;;;;;;;2.00;99.90;;;;;;5046689;28;19963;-79
2022/12/23 06:56:03;;;;;;;;;;;2.10;99.90;;;;;;5045945;28;19913;-79
2022/12/23 06:58:29;;;;;;;;;;;2.00;99.90;;;;;;5048655;28;19913;-79
2022/12/23 07:00:54;;;;;;;;;;;2.10;99.90;;;;;;5047386;28;19909;-79
2022/12/23 07:03:20;;;;;;;;;;;2.10;99.90;;;;;;5047346;28;19913;-79
2022/12/23 07:05:46;;;;;;;;;;;2.10;99.90;;;;;;5048367;28;20373;-79
2022/12/23 07:08:11;;;;;;;;;;;2.10;99.90;;;;;;5045426;28;19924;-79
2022/12/23 07:10:37;;;;;;;;;;;2.10;99.90;;;;;;5046523;28;19964;-79
2022/12/23 07:13:02;;;;;;;;;;;2.10;99.90;;;;;;5048894;28;19913;-79
2022/12/23 07:15:28;;;;;;;;;;;2.10;99.90;;;;;;5049335;28;19917;-79
2022/12/23 07:17:54;;;;;;;;;;;2.10;99.90;;;;;;5048532;28;20007;-79
2022/12/23 07:20:19;;;;;;;;;;;2.10;99.90;;;;;;5048897;28;19909;-79
2022/12/23 07:22:45;;;;;;;;;;;2.10;99.90;;;;;;5047556;28;19917;-79
2022/12/23 07:25:10;;;;;;;;;;;2.10;99.90;;;;;;5046384;28;19913;-79
2022/12/23 07:27:36;;;;;;;;;;;2.10;99.90;;;;;;5049184;28;19974;-79
2022/12/23 07:30:02;;;;;;;;;;;2.10;99.90;;;;;;5046688;28;20293;-79
2022/12/23 07:32:27;;;;;;;;;;;2.10;99.90;;;;;;5046906;28;19913;-79
2022/12/23 07:34:53;;;;;;;;;;;2.10;99.90;;;;;;5048386;28;19921;-79
2022/12/23 07:37:18;;;;;;;;;;;2.10;99.90;;;;;;5047713;28;19925;-79
2022/12/23 07:39:45;;;;;;;;;;;2.20;99.90;;;;;;5047362;28;20385;-79
2022/12/23 07:42:11;;;;;;;;;;;2.20;99.90;;;;;;5047820;28;19922;-79
2022/12/23 07:44:37;;;;;;;;;;;2.20;99.90;;;;;;5048302;28;19920;-79
2022/12/23 07:47:02;;;;;;;;;;;2.20;99.90;;;;;;5047936;28;19913;-79
2022/12/23 07:49:28;;;;;;;;;;;2.20;99.90;;;;;;5047955;28;19952;-79
2022/12/23 07:51:54;;;;;;;;;;;2.20;99.90;;;;;;5047639;28;19913;-79
2022/12/23 07:54:19;;;;;;;;;;;2.20;99.90;;;;;;5046690;28;19936;-79
2022/12/23 07:56:45;;;;;;;;;;;2.20;99.90;;;;;;5043707;28;19917;-79
2022/12/23 07:59:10;;;;;;;;;;;2.20;99.90;;;;;;5045242;28;19917;-79
2022/12/23 08:01:36;;;;;;;;;;;2.20;99.90;;;;;;5045272;28;19913;-78
2022/12/23 08:04:01;;;;;;;;;;;2.20;99.90;;;;;;5044052;28;19935;-79
2022/12/23 08:06:27;;;;;;;;;;;2.30;99.90;;;;;;5046641;28;19909;-78
2022/12/23 08:08:52;;;;;;;;;;;2.30;99.90;;;;;;5046150;28;19917;-79
2022/12/23 08:11:18;;;;;;;;;;;2.30;99.90;;;;;;5045441;28;19917;-79
2022/12/23 08:13:44;;;;;;;;;;;2.20;99.90;;;;;;5046023;28;19955;-78
2022/12/23 08:16:10;;;;;;;;;;;2.20;99.90;;;;;;5046545;28;19909;-79
2022/12/23 08:18:37;;;;;;;;;;;2.20;99.90;;;;;;5046578;28;19913;-79
2022/12/23 08:21:04;;;;;;;;;;;2.20;99.90;;;;;;5045950;28;19966;-79
2022/12/23 08:23:30;;;;;;;;;;;2.20;99.90;;;;;;5047387;28;19909;-79
2022/12/23 08:25:59;;;;;;;;;;;2.20;99.90;;;;;;5046632;28;19913;-78
2022/12/23 08:28:25;;;;;;;;;;;2.20;99.90;;;;;;5046197;28;20400;-78
2022/12/23 08:30:50;;;;;;;;;;;2.20;99.90;;;;;;5045877;28;19909;-79
2022/12/23 08:33:16;;;;;;;;;;;2.20;99.90;;;;;;5046226;28;19940;-79
2022/12/23 08:35:41;;;;;;;;;;;2.20;99.90;;;;;;5045833;28;19913;-79
2022/12/23 08:38:07;;;;;;;;;;;2.20;99.90;;;;;;5041835;28;19928;-79
2022/12/23 08:40:33;;;;;;;;;;;2.20;99.90;;;;;;5041738;28;19917;-79
2022/12/23 08:42:58;;;;;;;;;;;2.20;99.90;;;;;;5042363;28;19917;-79
2022/12/23 08:45:24;;;;;;;;;;;2.20;99.90;;;;;;5038309;28;19996;-79
2022/12/23 08:47:50;;;;;;;;;;;2.20;99.90;;;;;;5043516;28;20339;-79
2022/12/23 08:50:16;;;;;;;;;;;2.20;99.90;;;;;;5043635;28;19913;-79
2022/12/23 08:52:41;;;;;;;;;;;2.20;99.90;;;;;;5045211;23;19979;-71
2022/12/23 08:55:07;;;;;;;;;;;2.20;99.90;;;;;;5034011;28;19959;-71
2022/12/23 08:57:32;;;;;;;;;;;2.20;99.90;;;;;;5034069;28;19913;-71
2022/12/23 08:59:58;;;;;;;;;;;2.20;99.90;;;;;;5033955;28;20063;-71
2022/12/23 09:02:24;;;;;;;;;;;2.30;99.90;;;;;;5033598;28;19913;-71
2022/12/23 09:04:52;;;;;;;;;;;2.30;99.90;;;;;;5034222;28;20380;-71
2022/12/23 09:07:17;;;;;;;;;;;2.30;99.90;;;;;;5031916;28;19917;-71
2022/12/23 09:09:43;;;;;;;;;;;2.40;99.90;;;;;;5033544;28;19917;-71
2022/12/23 09:12:08;;;;;;;;;;;2.40;99.90;;;;;;5033794;28;19955;-71
2022/12/23 09:14:34;;;;;;;;;;;2.40;99.90;;;;;;5033539;28;19914;-71
2022/12/23 09:17:00;;;;;;;;;;;2.50;99.90;;;;;;5033723;28;19913;-71
2022/12/23 09:19:25;;;;;;;;;;;2.50;99.90;;;;;;5033481;28;19913;-71
2022/12/23 09:21:51;;;;;;;;;;;2.50;99.90;;;;;;5032181;28;19913;-71
2022/12/23 09:24:16;;;;;;;;;;;2.50;99.90;;;;;;5033201;28;20000;-71
2022/12/23 09:26:42;;;;;;;;;;;2.60;99.90;;;;;;5033445;28;20361;-71
2022/12/23 09:29:07;;;;;;;;;;;2.60;99.90;;;;;;5033260;28;19917;-71
2022/12/23 09:31:33;;;;;;;;;;;2.60;99.90;;;;;;5033396;28;20374;-71
2022/12/23 09:33:58;;;;;;;;;;;2.60;99.90;;;;;;5033394;28;19913;-71
2022/12/23 09:36:24;;;;;;;;;;;2.60;99.90;;;;;;5033653;28;19920;-71
2022/12/23 09:38:54;;;;;;;;;;;2.70;99.90;;;;;;5032988;28;19913;-71
2022/12/23 09:41:20;;;;;;;;;;;2.60;99.90;;;;;;5033265;28;19909;-71
2022/12/23 09:44:04;;;;;;;;;;;2.70;99.90;;;;;;5033268;28;19916;-71
2022/12/23 09:46:31;;;;;;;;;;;2.70;99.90;;;;;;5033518;28;20407;-71
2022/12/23 09:49:03;;;;;;;;;;;2.70;99.90;;;;;;5033104;28;20015;-71
2022/12/23 09:51:29;;;;;;;;;;;2.80;99.90;;;;;;5033312;28;19916;-71
2022/12/23 09:53:59;;;;;;;;;;;2.80;99.90;;;;;;5032980;28;19948;-71
2022/12/23 09:56:43;;;;;;;;;;;2.80;99.90;;;;;;5034565;28;19916;-71
2022/12/23 09:59:25;;;;;;;;;;;2.80;99.90;;;;;;5036616;28;20284;-71
2022/12/23 10:02:09;;;;;;;;;;;2.70;99.90;;;;;;5036961;28;20468;-71
2022/12/23 10:04:38;;;;;;;;;;;2.80;99.90;;;;;;5037128;28;19916;-71
2022/12/23 10:07:04;;;;;;;;;;;2.70;99.90;;;;;;5036490;28;20381;-71
2022/12/23 10:09:31;;;;;;;;;;;2.70;99.90;;;;;;5036063;28;19921;-71
2022/12/23 10:11:56;;;;;;;;;;;2.70;99.90;;;;;;5036684;28;19909;-71
2022/12/23 10:14:28;;;;;;;;;;;2.70;99.90;;;;;;5036386;28;19916;-71
2022/12/23 10:16:59;;;;;;;;;;;2.70;99.90;;;;;;5036334;28;19999;-71
2022/12/23 10:19:40;;;;;;;;;;;2.70;99.90;;;;;;5035070;28;19916;-71
2022/12/23 10:22:19;;;;;;;;;;;2.70;99.90;;;;;;5036582;28;19917;-71
2022/12/23 10:24:45;;;;;;;;;;;2.80;99.90;;;;;;5034637;28;19911;-70
2022/12/23 10:27:14;;;;;;;;;;;2.80;99.90;;;;;;5036062;28;19916;-71
2022/12/23 10:29:41;;;;;;;;;;;2.80;99.90;;;;;;5036040;28;20352;-71
2022/12/23 10:32:15;;;;;;;;;;;2.90;99.90;;;;;;5036639;28;19909;-71
2022/12/23 10:34:47;;;;;;;;;;;2.90;99.90;;;;;;5036018;28;20012;-71
2022/12/23 10:37:20;;;;;;;;;;;2.90;99.90;;;;;;5035837;28;19909;-71
2022/12/23 10:40:04;;;;;;;;;;;3.00;99.90;;;;;;5035738;28;19944;-71
2022/12/23 10:42:29;;;;;;;;;;;3.10;99.90;;;;;;5036149;28;20425;-71
2022/12/23 10:45:13;;;;;;;;;;;3.20;99.90;;;;;;5036102;28;19940;-70
2022/12/23 10:47:42;;;;;;;;;;;3.20;99.90;;;;;;5035645;28;20051;-71
2022/12/23 10:50:26;;;;;;;;;;;3.20;99.90;;;;;;5036254;28;20270;-70
2022/12/23 10:52:53;;;;;;;;;;;3.20;99.90;;;;;;5035511;28;20295;-70
2022/12/23 10:55:21;;;;;;;;;;;3.20;99.90;;;;;;5036205;28;19909;-71
2022/12/23 10:57:48;;;;;;;;;;;3.30;99.90;;;;;;5034237;28;19913;-70
2022/12/23 11:00:21;;;;;;;;;;;3.30;99.90;;;;;;5035816;28;19968;-70
2022/12/23 11:02:54;;;;;;;;;;;3.20;99.90;;;;;;5035680;28;19916;-70
2022/12/23 11:05:23;;;;;;;;;;;3.20;99.90;;;;;;5035763;28;19948;-71
2022/12/23 11:07:48;;;;;;;;;;;3.20;99.90;;;;;;5034461;28;20008;-70
2022/12/23 11:10:19;;;;;;;;;;;3.20;99.90;;;;;;5035613;28;19963;-71
2022/12/23 11:12:49;;;;;;;;;;;3.20;99.90;;;;;;5035263;28;19924;-70
2022/12/23 11:15:24;;;;;;;;;;;3.20;99.90;;;;;;5035829;28;19909;-71
2022/12/23 11:18:04;;;;;;;;;;;3.20;99.90;;;;;;5035085;28;19916;-70
2022/12/23 11:20:30;;;;;;;;;;;3.20;99.90;;;;;;5035422;28;20441;-71
2022/12/23 11:22:58;;;;;;;;;;;3.20;99.90;;;;;;5035071;28;20269;-70
2022/12/23 11:25:25;;;;;;;;;;;3.20;99.90;;;;;;5035018;28;19913;-70
2022/12/23 11:28:09;;;;;;;;;;;3.30;99.90;;;;;;5034887;28;20008;-70
2022/12/23 11:30:54;;;;;;;;;;;3.40;99.90;;;;;;5034873;28;19960;-71
2022/12/23 11:33:23;;;;;;;;;;;3.40;99.90;;;;;;5034937;28;20007;-71
2022/12/23 11:35:58;;;;;;;;;;;3.50;99.90;;;;;;5035129;28;20269;-70
2022/12/23 11:38:23;;;;;;;;;;;3.60;99.90;;;;;;5034721;28;19964;-70
2022/12/23 11:40:49;;;;;;;;;;;3.70;99.90;;;;;;5035053;28;19917;-70
2022/12/23 11:43:15;;;;;;;;;;;3.80;99.90;;;;;;5035282;28;20272;-70
2022/12/23 11:45:40;;;;;;;;;;;3.90;99.90;;;;;;5034674;28;19948;-70
2022/12/23 11:48:24;;;;;;;;;;;4.00;99.90;;;;;;5034483;28;20383;-71
2022/12/23 11:50:57;;;;;;;;;;;4.10;99.90;;;;;;5034849;28;19940;-70
2022/12/23 11:53:23;;;;;;;;;;;4.20;99.90;;;;;;5032946;28;19975;-70
2022/12/23 11:56:04;;;;;;;;;;;4.20;99.90;;;;;;5034478;28;19913;-70
2022/12/23 11:58:31;;;;;;;;;;;4.20;99.90;;;;;;5034376;28;19916;-70
2022/12/23 12:00:58;;;;;;;;;;;4.30;99.90;;;;;;5034701;28;19909;-70
2022/12/23 12:03:32;;;;;;;;;;;4.30;99.90;;;;;;5034948;28;20039;-70
2022/12/23 12:05:58;;;;;;;;;;;4.30;99.90;;;;;;5034560;28;19909;-70
2022/12/23 12:08:28;;;;;;;;;;;4.40;99.90;;;;;;5033812;28;19921;-70
2022/12/23 12:11:00;;;;;;;;;;;4.40;99.90;;;;;;5034805;28;19955;-70
2022/12/23 12:13:29;;;;;;;;;;;4.40;99.90;;;;;;5034221;28;19909;-70
2022/12/23 12:15:55;;;;;;;;;;;4.40;99.90;;;;;;5034135;28;19996;-70
2022/12/23 12:18:23;;;;;;;;;;;4.40;99.90;;;;;;5032978;28;20333;-70
2022/12/23 12:21:08;;;;;;;;;;;4.40;99.90;;;;;;5034055;28;19917;-70
2022/12/23 12:23:40;;;;;;;;;;;4.40;99.90;;;;;;5033769;28;19913;-70
2022/12/23 12:26:10;;;;;;;;;;;4.40;99.90;;;;;;5034168;28;19952;-70
2022/12/23 12:28:40;;;;;;;;;;;4.50;99.90;;;;;;5033988;28;19913;-70
2022/12/23 12:31:35;;;;;;;;;;;4.50;99.90;;;;;;5033998;28;19909;-70
2022/12/23 12:34:00;;;;;;;;;;;4.50;99.90;;;;;;5032232;28;19960;-70
2022/12/23 12:36:31;;;;;;;;;;;4.40;99.90;;;;;;5033936;28;19913;-70
2022/12/23 12:38:57;;;;;;;;;;;4.40;99.90;;;;;;5033549;28;19909;-70
2022/12/23 12:41:34;;;;;;;;;;;4.40;99.90;;;;;;5033853;28;19962;-70
2022/12/23 12:44:22;;;;;;;;;;;4.40;99.90;;;;;;5034419;28;19909;-70
2022/12/23 12:46:56;;;;;;;;;;;4.40;99.90;;;;;;5032547;28;19967;-70
2022/12/23 12:49:27;;;;;;;;;;;4.40;99.90;;;;;;5033929;28;19913;-70
2022/12/23 12:51:53;;;;;;;;;;;4.40;99.90;;;;;;5033876;28;19913;-70
2022/12/23 12:54:25;;;;;;;;;;;4.40;99.90;;;;;;5032560;28;20288;-70
2022/12/23 12:56:51;;;;;;;;;;;4.40;99.90;;;;;;5033660;28;19916;-70
2022/12/23 12:59:21;;;;;;;;;;;4.40;99.90;;;;;;5033568;28;19909;-70
2022/12/23 13:01:51;;;;;;;;;;;4.40;99.90;;;;;;5033898;28;20261;-69
2022/12/23 13:04:28;;;;;;;;;;;4.50;99.90;;;;;;5033613;28;20000;-70
2022/12/23 13:07:23;;;;;;;;;;;4.50;99.90;;;;;;5033885;28;20357;-70
2022/12/23 13:10:07;;;;;;;;;;;4.40;99.90;;;;;;5032756;28;19920;-70
2022/12/23 13:12:32;;;;;;;;;;;4.50;99.90;;;;;;5033549;28;19909;-70
2022/12/23 13:15:10;;;;;;;;;;;4.50;99.90;;;;;;5033522;28;19917;-70
2022/12/23 13:17:54;;;;;;;;;;;4.50;99.90;;;;;;5033823;28;20284;-70
2022/12/23 13:20:30;;;;;;;;;;;4.50;99.90;;;;;;5033535;28;19909;-70
2022/12/23 13:22:59;;;;;;;;;;;4.50;99.90;;;;;;5033758;28;20000;-70
2022/12/23 13:25:28;;;;;;;;;;;4.50;99.90;;;;;;5033218;28;19909;-70
2022/12/23 13:28:16;;;;;;;;;;;4.50;99.90;;;;;;5033257;28;19939;-70
2022/12/23 13:30:45;;;;;;;;;;;4.50;99.90;;;;;;5035681;28;20375;-70
2022/12/23 13:33:29;;;;;;;;;;;4.50;99.90;;;;;;5037141;28;19909;-70
2022/12/23 13:36:00;;;;;;;;;;;4.50;99.90;;;;;;5037112;28;19963;-70
2022/12/23 13:38:29;;;;;;;;;;;4.40;99.90;;;;;;5036705;28;19999;-70
2022/12/23 13:41:13;;;;;;;;;;;4.40;99.90;;;;;;5036985;28;20383;-70
2022/12/23 13:43:45;;;;;;;;;;;4.40;99.90;;;;;;5037341;28;19962;-70
2022/12/23 13:46:23;;;;;;;;;;;4.30;99.90;;;;;;5037866;28;20273;-70
2022/12/23 13:48:59;;;;;;;;;;;4.30;99.90;;;;;;5037338;28;19913;-70
2022/12/23 13:51:28;;;;;;;;;;;4.30;99.90;;;;;;5037020;28;19963;-70
2022/12/23 13:54:01;;;;;;;;;;;4.30;99.90;;;;;;5036772;28;19970;-70
2022/12/23 13:56:30;;;;;;;;;;;4.30;99.90;;;;;;5036717;28;19959;-70
2022/12/23 13:58:56;;;;;;;;;;;4.30;99.90;;;;;;5036616;28;19916;-70
2022/12/23 14:01:21;;;;;;;;;;;4.30;99.90;;;;;;5036669;28;19909;-70
2022/12/23 14:03:48;;;;;;;;;;;4.30;99.90;;;;;;5037163;28;19952;-70
2022/12/23 14:06:40;;;;;;;;;;;4.30;99.90;;;;;;5036530;28;19921;-70
2022/12/23 14:09:06;;;;;;;;;;;4.30;99.90;;;;;;5035948;28;19913;-71
2022/12/23 14:11:32;;;;;;;;;;;4.30;99.90;;;;;;5036710;28;20341;-70
2022/12/23 14:14:05;;;;;;;;;;;4.30;99.90;;;;;;5037025;28;20009;-70
2022/12/23 14:16:33;;;;;;;;;;;4.20;99.90;;;;;;5036384;28;20365;-70
2022/12/23 14:19:05;;;;;;;;;;;4.20;99.90;;;;;;5036251;28;19909;-70
2022/12/23 14:21:33;;;;;;;;;;;4.20;99.90;;;;;;5036266;28;19913;-71
2022/12/23 14:24:10;;;;;;;;;;;4.10;99.90;;;;;;5036158;28;19909;-70
2022/12/23 14:26:48;;;;;;;;;;;4.10;99.90;;;;;;5036400;28;19909;-70
2022/12/23 14:29:26;;;;;;;;;;;4.10;99.90;;;;;;5036749;28;19967;-70
2022/12/23 14:31:56;;;;;;;;;;;4.00;99.90;;;;;;5036146;28;19953;-70
2022/12/23 14:34:24;;;;;;;;;;;4.10;99.90;;;;;;5034778;28;19913;-70
2022/12/23 14:37:09;;;;;;;;;;;4.10;99.90;;;;;;5036269;28;19932;-69
2022/12/23 14:39:34;;;;;;;;;;;4.20;99.90;;;;;;5035659;28;19909;-70
2022/12/23 14:42:00;;;;;;;;;;;4.30;99.90;;;;;;5035071;28;19914;-70
2022/12/23 14:44:34;;;;;;;;;;;4.40;99.90;;;;;;5036154;28;19913;-70
2022/12/23 14:47:00;;;;;;;;;;;4.40;99.90;;;;;;5035716;28;20377;-70
2022/12/23 14:49:36;;;;;;;;;;;4.50;99.90;;;;;;5036002;28;19916;-70
2022/12/23 14:52:21;;;;;;;;;;;4.50;99.90;;;;;;5036304;28;19917;-68
2022/12/23 14:54:46;;;;;;;;;;;4.40;99.90;;;;;;5035525;28;19928;-68
2022/12/23 14:57:17;;;;;;;;;;;4.30;99.90;;;;;;5035509;28;19913;-68
2022/12/23 15:00:00;;;;;;;;;;;4.30;99.90;;;;;;5035518;28;19909;-68
2022/12/23 15:02:26;;;;;;;;;;;4.20;99.90;;;;;;5035417;28;19916;-68
2022/12/23 15:04:56;;;;;;;;;;;4.20;99.90;;;;;;5035461;28;19909;-68
2022/12/23 15:07:37;;;;;;;;;;;4.10;99.90;;;;;;5035207;28;20289;-68